KRIL/RIL METAR and TAF weather

Enter ICAO airport designator
Station Type Date Time Source
KRIL METAR 2020/02/24 07:16 UTC NOAA

KRIL 240716Z AUTO 00000KT 10SM SCT024 M02/M06 A3007 RMK AO2 T10221061


Station Type Date Time Source
KRIL Decoded METAR 2020/02/24 07:16 UTC NOAA

RIFLE GARFIELD COUNTY RGNL, CO, United States (KRIL) 39-31N 107-44W 1678M
Feb 24, 2020 - 02:16 AM EST / 2020.02.24 0716 UTC
Wind: Calm:0
Visibility: 10 mile(s):0
Sky conditions: partly cloudy
Temperature: 28.0 F (-2.2 C)
Dew Point: 21.0 F (-6.1 C)
Relative Humidity: 74%
Pressure (altimeter): 30.07 in. Hg (1018 hPa)
ob: KRIL 240716Z AUTO 00000KT 10SM SCT024 M02/M06 A3007 RMK AO2 T10221061
cycle: 7

Station Type Date Time Source
KRIL TAF 2020/02/24 07:54 UTC NOAA

TAF
AMD KRIL 240652Z 2407/2506 17004KT P6SM BKN023 BKN035
FM241400 30005KT P6SM VCSH SCT025 BKN050
FM241800 32009G18KT P6SM FEW040 SCT070
FM250300 32007KT P6SM VCSH SCT025 BKN060

Example: see airport list